createdAt,value
2018-05-31T00:00:01.020Z,21.38
2018-05-31T00:01:01.058Z,21.38
2018-05-31T00:02:01.003Z,21.37
2018-05-31T00:03:01.097Z,21.38
2018-05-31T00:04:01.174Z,21.37
2018-05-31T00:05:01.060Z,21.38
2018-05-31T00:06:00.922Z,21.38
2018-05-31T00:07:00.958Z,21.38
2018-05-31T00:08:01.115Z,21.38
2018-05-31T00:09:01.018Z,21.38
2018-05-31T00:10:00.899Z,21.37
2018-05-31T00:11:01.166Z,21.38
2018-05-31T00:12:01.101Z,21.37
2018-05-31T00:13:01.334Z,21.37
2018-05-31T00:14:01.076Z,21.38
2018-05-31T00:15:00.859Z,21.38
2018-05-31T00:16:01.039Z,21.36
2018-05-31T00:17:01.220Z,21.37
2018-05-31T00:18:00.979Z,21.38
2018-05-31T00:19:00.883Z,21.37
2018-05-31T00:20:01.023Z,21.37
2018-05-31T00:21:00.877Z,21.38
2018-05-31T00:22:01.114Z,21.36
2018-05-31T00:23:01.053Z,21.36
2018-05-31T00:24:00.951Z,21.37
2018-05-31T00:25:01.117Z,21.36
2018-05-31T00:26:00.912Z,21.36
2018-05-31T00:27:00.988Z,21.36
2018-05-31T00:28:00.948Z,21.35
2018-05-31T00:29:00.943Z,21.36
2018-05-31T00:30:01.036Z,21.37
2018-05-31T00:31:01.024Z,21.37
2018-05-31T00:32:01.004Z,21.36
2018-05-31T00:33:01.238Z,21.37
2018-05-31T00:34:01.006Z,21.36
2018-05-31T00:35:01.056Z,21.36
2018-05-31T00:36:01.111Z,21.35
2018-05-31T00:37:00.976Z,21.35
2018-05-31T00:38:01.096Z,21.36
2018-05-31T00:39:01.204Z,21.37
2018-05-31T00:40:01.139Z,21.35
2018-05-31T00:41:01.147Z,21.36
2018-05-31T00:42:01.004Z,21.36
2018-05-31T00:43:01.157Z,21.35
2018-05-31T00:44:01.195Z,21.35
2018-05-31T00:45:01.151Z,21.36
2018-05-31T00:46:01.052Z,21.36
2018-05-31T00:47:01.056Z,21.35
2018-05-31T00:48:01.264Z,21.36
2018-05-31T00:49:01.187Z,21.36
2018-05-31T00:50:01.063Z,21.35
2018-05-31T00:51:01.071Z,21.36
2018-05-31T00:52:01.208Z,21.35
2018-05-31T00:53:01.087Z,21.37
2018-05-31T00:54:01.095Z,21.36
2018-05-31T00:55:00.891Z,21.35
2018-05-31T00:56:01.111Z,21.36
2018-05-31T00:57:01.109Z,21.36
2018-05-31T00:58:01.371Z,21.36
2018-05-31T00:59:01.137Z,21.35
2018-05-31T01:00:01.197Z,21.36
2018-05-31T01:01:01.282Z,21.35
2018-05-31T01:02:01.226Z,21.36
2018-05-31T01:03:01.329Z,21.36
2018-05-31T01:04:11.145Z,21.35
2018-05-31T01:05:00.970Z,21.35
2018-05-31T01:06:01.162Z,21.36
2018-05-31T01:07:01.165Z,21.35
2018-05-31T01:08:01.170Z,21.35
2018-05-31T01:09:01.186Z,21.35
2018-05-31T01:10:01.186Z,21.35
2018-05-31T01:11:01.017Z,21.36
2018-05-31T01:12:01.218Z,21.36
2018-05-31T01:13:01.198Z,21.34
2018-05-31T01:14:01.033Z,21.35
2018-05-31T01:15:01.211Z,21.35
2018-05-31T01:16:01.243Z,21.35
2018-05-31T01:17:01.201Z,21.36
2018-05-31T01:18:01.031Z,21.35
2018-05-31T01:19:01.220Z,21.35
2018-05-31T01:20:01.238Z,21.35
2018-05-31T01:21:01.074Z,21.35
2018-05-31T01:22:01.245Z,21.35
2018-05-31T01:23:01.251Z,21.35
2018-05-31T01:24:01.075Z,21.35
2018-05-31T01:25:01.265Z,21.35
2018-05-31T01:26:01.271Z,21.34
2018-05-31T01:27:00.857Z,21.35
2018-05-31T01:28:01.293Z,21.35
2018-05-31T01:29:00.828Z,21.35
2018-05-31T01:30:01.143Z,21.35
2018-05-31T01:31:01.112Z,21.35
2018-05-31T01:32:01.080Z,21.35
2018-05-31T01:33:01.050Z,21.35
2018-05-31T01:34:01.360Z,21.35
2018-05-31T01:35:01.049Z,21.35
2018-05-31T01:36:01.088Z,21.35
2018-05-31T01:37:00.985Z,21.34
2018-05-31T01:38:00.860Z,21.35
2018-05-31T01:39:01.124Z,21.35
2018-05-31T01:40:01.183Z,21.35
2018-05-31T01:41:00.926Z,21.35
2018-05-31T01:42:01.172Z,21.35
2018-05-31T01:43:01.415Z,21.34
2018-05-31T01:44:01.116Z,21.35
2018-05-31T01:45:01.222Z,21.35
2018-05-31T01:46:01.234Z,21.34
2018-05-31T01:47:01.248Z,21.34
2018-05-31T01:48:00.925Z,21.35
2018-05-31T01:49:00.936Z,21.34
2018-05-31T01:50:00.950Z,21.34
2018-05-31T01:51:01.277Z,21.34
2018-05-31T01:52:00.838Z,21.34
2018-05-31T01:53:01.028Z,21.34
2018-05-31T01:54:01.228Z,21.34
2018-05-31T01:55:00.857Z,21.34
2018-05-31T01:56:00.994Z,21.34
2018-05-31T01:57:01.281Z,21.34
2018-05-31T01:58:00.887Z,21.33
2018-05-31T01:59:01.309Z,21.34
2018-05-31T02:00:01.146Z,21.34
2018-05-31T02:01:01.310Z,21.34
2018-05-31T02:02:01.296Z,21.35
2018-05-31T02:03:00.973Z,21.35
2018-05-31T02:04:01.122Z,21.34
2018-05-31T02:05:01.026Z,21.34
2018-05-31T02:06:00.947Z,21.34
2018-05-31T02:07:01.053Z,21.33
2018-05-31T02:08:01.137Z,21.34
2018-05-31T02:09:00.752Z,21.35
2018-05-31T02:10:00.991Z,21.33
2018-05-31T02:11:00.934Z,21.34
2018-05-31T02:12:01.053Z,21.35
2018-05-31T02:13:00.957Z,21.34
2018-05-31T02:14:01.116Z,21.34
2018-05-31T02:15:00.956Z,21.34
2018-05-31T02:16:00.972Z,21.33
2018-05-31T02:17:01.358Z,21.34
2018-05-31T02:18:01.425Z,21.34
2018-05-31T02:19:01.026Z,21.33
2018-05-31T02:20:00.832Z,21.33
2018-05-31T02:21:00.941Z,21.34
2018-05-31T02:22:00.823Z,21.32
2018-05-31T02:23:00.931Z,21.34
2018-05-31T02:24:01.021Z,21.33
2018-05-31T02:25:00.984Z,21.33
2018-05-31T02:26:00.929Z,21.33
2018-05-31T02:27:01.003Z,21.33
2018-05-31T02:28:00.977Z,21.33
2018-05-31T02:29:00.818Z,21.33
2018-05-31T02:30:01.162Z,21.33
2018-05-31T02:31:01.099Z,21.33
2018-05-31T02:32:00.908Z,21.34
2018-05-31T02:33:00.932Z,21.34
2018-05-31T02:34:01.073Z,21.33
2018-05-31T02:35:01.067Z,21.33
2018-05-31T02:36:00.992Z,21.34
2018-05-31T02:37:00.855Z,21.33
2018-05-31T02:38:00.848Z,21.33
2018-05-31T02:39:00.907Z,21.33
2018-05-31T02:40:01.011Z,21.33
2018-05-31T02:41:00.900Z,21.33
2018-05-31T02:42:00.930Z,21.34
2018-05-31T02:43:01.102Z,21.33
2018-05-31T02:44:01.043Z,21.33
2018-05-31T02:45:00.831Z,21.34
2018-05-31T02:46:00.928Z,21.32
2018-05-31T02:47:00.997Z,21.34
2018-05-31T02:48:01.097Z,21.33
2018-05-31T02:49:01.141Z,21.32
2018-05-31T02:50:00.975Z,21.33
2018-05-31T02:51:00.986Z,21.33
2018-05-31T02:52:01.078Z,21.32
2018-05-31T02:53:01.083Z,21.34
2018-05-31T02:54:00.899Z,21.33
2018-05-31T02:55:00.891Z,21.33
2018-05-31T02:56:32.948Z,21.33
2018-05-31T02:57:00.915Z,21.33
2018-05-31T02:58:00.970Z,21.32
2018-05-31T02:59:01.090Z,21.32
2018-05-31T03:00:00.947Z,21.33
2018-05-31T03:01:00.941Z,21.33
2018-05-31T03:02:01.092Z,21.33
2018-05-31T03:03:01.105Z,21.32
2018-05-31T03:04:01.240Z,21.32
2018-05-31T03:05:00.966Z,21.33
2018-05-31T03:06:00.969Z,21.33
2018-05-31T03:07:01.136Z,21.33
2018-05-31T03:08:00.987Z,21.33
2018-05-31T03:09:01.060Z,21.32
2018-05-31T03:10:00.997Z,21.32
2018-05-31T03:11:01.008Z,21.32
2018-05-31T03:12:01.002Z,21.34
2018-05-31T03:13:01.082Z,21.33
2018-05-31T03:14:01.017Z,21.33
2018-05-31T03:15:01.031Z,21.34
2018-05-31T03:16:01.118Z,21.32
2018-05-31T03:17:01.147Z,21.33
2018-05-31T03:18:01.037Z,21.33
2018-05-31T03:19:01.158Z,21.32
2018-05-31T03:20:01.326Z,21.33
2018-05-31T03:21:00.801Z,21.33
2018-05-31T03:22:01.065Z,21.33
2018-05-31T03:23:01.074Z,21.32
2018-05-31T03:24:01.074Z,21.33
2018-05-31T03:25:01.229Z,21.32
2018-05-31T03:26:01.167Z,21.33
2018-05-31T03:27:01.083Z,21.32
2018-05-31T03:28:01.133Z,21.32
2018-05-31T03:29:01.207Z,21.32
2018-05-31T03:30:01.093Z,21.33
2018-05-31T03:31:01.101Z,21.32
2018-05-31T03:32:01.100Z,21.32
2018-05-31T03:33:01.108Z,21.33
2018-05-31T03:34:01.138Z,21.32
2018-05-31T03:35:01.135Z,21.32
2018-05-31T03:36:01.141Z,21.33
2018-05-31T03:37:01.159Z,21.32
2018-05-31T03:38:01.159Z,21.32
2018-05-31T03:39:01.161Z,21.34
2018-05-31T03:40:01.166Z,21.32
2018-05-31T03:41:01.152Z,21.32
2018-05-31T03:42:01.178Z,21.32
2018-05-31T03:43:01.183Z,21.31
2018-05-31T03:44:01.005Z,21.33
2018-05-31T03:45:01.205Z,21.33
2018-05-31T03:46:01.005Z,21.32
2018-05-31T03:47:01.195Z,21.32
2018-05-31T03:48:00.975Z,21.32
2018-05-31T03:49:01.060Z,21.32
2018-05-31T03:50:00.853Z,21.32
2018-05-31T03:51:01.073Z,21.33
2018-05-31T03:52:01.249Z,21.32
2018-05-31T03:53:00.859Z,21.33
2018-05-31T03:54:01.265Z,21.32
2018-05-31T03:55:01.272Z,21.32
2018-05-31T03:56:00.846Z,21.32
2018-05-31T03:57:00.881Z,21.33
2018-05-31T03:58:01.038Z,21.32
2018-05-31T03:59:00.980Z,21.32
2018-05-31T04:00:01.052Z,21.32
2018-05-31T04:01:01.302Z,21.31
2018-05-31T04:02:01.155Z,21.32
2018-05-31T04:03:01.112Z,21.32
2018-05-31T04:04:01.122Z,21.31
2018-05-31T04:05:00.935Z,21.32
2018-05-31T04:06:10.851Z,21.32
2018-05-31T04:07:01.174Z,21.31
2018-05-31T04:08:00.917Z,21.32
2018-05-31T04:09:01.101Z,21.32
2018-05-31T04:10:01.139Z,21.31
2018-05-31T04:11:01.228Z,21.32
2018-05-31T04:12:00.913Z,21.32
2018-05-31T04:13:01.289Z,21.31
2018-05-31T04:14:01.128Z,21.32
2018-05-31T04:15:00.792Z,21.32
2018-05-31T04:16:00.919Z,21.31
2018-05-31T04:17:01.121Z,21.31
2018-05-31T04:18:00.822Z,21.32
2018-05-31T04:19:00.909Z,21.31
2018-05-31T04:20:00.779Z,21.31
2018-05-31T04:21:00.946Z,21.31
2018-05-31T04:22:00.931Z,21.31
2018-05-31T04:23:01.245Z,21.32
2018-05-31T04:24:01.247Z,21.32
2018-05-31T04:25:01.289Z,21.31
2018-05-31T04:26:00.896Z,21.31
2018-05-31T04:27:00.794Z,21.32
2018-05-31T04:28:00.912Z,21.31
2018-05-31T04:29:00.853Z,21.31
2018-05-31T04:30:00.966Z,21.32
2018-05-31T04:31:01.022Z,21.32
2018-05-31T04:32:00.970Z,21.31
2018-05-31T04:33:00.876Z,21.32
2018-05-31T04:34:00.965Z,21.31
2018-05-31T04:35:01.005Z,21.32
2018-05-31T04:36:00.945Z,21.32
2018-05-31T04:37:00.907Z,21.31
2018-05-31T04:38:10.906Z,21.32
2018-05-31T04:39:00.872Z,21.31
2018-05-31T04:40:01.049Z,21.31
2018-05-31T04:41:00.905Z,21.32
2018-05-31T04:42:00.843Z,21.31
2018-05-31T04:43:01.002Z,21.31
2018-05-31T04:44:01.048Z,21.32
2018-05-31T04:45:01.022Z,21.32
2018-05-31T04:46:00.942Z,21.32
2018-05-31T04:47:00.994Z,21.31
2018-05-31T04:48:00.878Z,21.31
2018-05-31T04:49:00.950Z,21.3
2018-05-31T04:50:01.190Z,21.3
2018-05-31T04:51:00.976Z,21.31
2018-05-31T04:52:00.785Z,21.3
2018-05-31T04:53:00.980Z,21.31
2018-05-31T04:54:01.036Z,21.31
2018-05-31T04:55:00.884Z,21.3
2018-05-31T04:56:00.961Z,21.31
2018-05-31T04:57:00.928Z,21.31
2018-05-31T04:58:01.060Z,21.3
2018-05-31T04:59:00.939Z,21.31
2018-05-31T05:00:01.077Z,21.31
2018-05-31T05:01:00.802Z,21.3
2018-05-31T05:02:00.840Z,21.31
2018-05-31T05:03:01.078Z,21.3
2018-05-31T05:04:00.997Z,21.3
2018-05-31T05:05:00.992Z,21.31
2018-05-31T05:06:00.994Z,21.32
2018-05-31T05:07:01.096Z,21.3
2018-05-31T05:08:01.309Z,21.31
2018-05-31T05:09:01.024Z,21.31
2018-05-31T05:10:00.843Z,21.3
2018-05-31T05:11:00.849Z,21.31
2018-05-31T05:12:01.029Z,21.31
2018-05-31T05:13:00.997Z,21.31
2018-05-31T05:14:00.977Z,21.31
2018-05-31T05:15:00.884Z,21.32
2018-05-31T05:16:00.822Z,21.3
2018-05-31T05:17:01.010Z,21.31
2018-05-31T05:18:01.062Z,21.31
2018-05-31T05:19:01.006Z,21.3
2018-05-31T05:20:00.946Z,21.31
2018-05-31T05:21:00.848Z,21.31
2018-05-31T05:22:00.903Z,21.3
2018-05-31T05:23:00.895Z,21.31
2018-05-31T05:24:01.102Z,21.3
2018-05-31T05:25:01.155Z,21.29
2018-05-31T05:26:00.894Z,21.3
2018-05-31T05:27:00.901Z,21.3
2018-05-31T05:28:00.958Z,21.29
2018-05-31T05:29:01.034Z,21.31
2018-05-31T05:30:00.912Z,21.3
2018-05-31T05:31:01.048Z,21.29
2018-05-31T05:32:01.011Z,21.3
2018-05-31T05:33:00.968Z,21.3
2018-05-31T05:34:00.987Z,21.3
2018-05-31T05:35:01.158Z,21.31
2018-05-31T05:36:00.966Z,21.3
2018-05-31T05:37:01.090Z,21.29
2018-05-31T05:38:00.942Z,21.3
2018-05-31T05:39:00.940Z,21.31
2018-05-31T05:40:01.052Z,21.29
2018-05-31T05:41:01.021Z,21.3
2018-05-31T05:42:01.008Z,21.31
2018-05-31T05:43:00.982Z,21.29
2018-05-31T05:44:01.106Z,21.3
2018-05-31T05:45:00.991Z,21.3
2018-05-31T05:46:01.065Z,21.3
2018-05-31T05:47:01.127Z,21.3
2018-05-31T05:48:01.009Z,21.3
2018-05-31T05:49:01.221Z,21.3
2018-05-31T05:50:01.084Z,21.3
2018-05-31T05:51:01.028Z,21.3
2018-05-31T05:52:01.101Z,21.29
2018-05-31T05:53:01.042Z,21.3
2018-05-31T05:54:01.076Z,21.3
2018-05-31T05:55:01.120Z,21.29
2018-05-31T05:56:01.071Z,21.29
2018-05-31T05:57:01.063Z,21.3
2018-05-31T05:58:01.228Z,21.29
2018-05-31T05:59:01.166Z,21.3
2018-05-31T06:00:01.138Z,21.3
2018-05-31T06:01:01.081Z,21.28
2018-05-31T06:02:01.085Z,21.3
2018-05-31T06:03:01.090Z,21.29
2018-05-31T06:04:01.099Z,21.29
2018-05-31T06:05:01.105Z,21.3
2018-05-31T06:06:01.089Z,21.3
2018-05-31T06:07:01.152Z,21.29
2018-05-31T06:08:00.932Z,21.29
2018-05-31T06:09:01.128Z,21.29
2018-05-31T06:10:01.150Z,21.28
2018-05-31T06:11:01.178Z,21.3
2018-05-31T06:12:01.152Z,21.29
2018-05-31T06:13:01.290Z,21.29
2018-05-31T06:14:01.328Z,21.29
2018-05-31T06:15:01.181Z,21.3
2018-05-31T06:16:01.005Z,21.3
2018-05-31T06:17:00.849Z,21.3
2018-05-31T06:18:01.031Z,21.29
2018-05-31T06:19:00.957Z,21.29
2018-05-31T06:20:00.933Z,21.29
2018-05-31T06:21:00.754Z,21.28
2018-05-31T06:22:01.026Z,21.28
2018-05-31T06:23:01.200Z,21.29
2018-05-31T06:24:01.228Z,21.29
2018-05-31T06:25:01.391Z,21.29
2018-05-31T06:26:00.880Z,21.29
2018-05-31T06:27:00.814Z,21.3
2018-05-31T06:28:01.048Z,21.28
2018-05-31T06:29:01.261Z,21.29
2018-05-31T06:30:00.814Z,21.29
2018-05-31T06:31:00.938Z,21.29
2018-05-31T06:32:01.013Z,21.29
2018-05-31T06:33:01.099Z,21.29
2018-05-31T06:34:01.085Z,21.3
2018-05-31T06:35:01.132Z,21.3
2018-05-31T06:36:00.851Z,21.29
2018-05-31T06:37:01.173Z,21.29
2018-05-31T06:38:00.932Z,21.3
2018-05-31T06:39:00.892Z,21.31
2018-05-31T06:40:01.157Z,21.29
2018-05-31T06:41:00.862Z,21.3
2018-05-31T06:42:01.062Z,21.29
2018-05-31T06:43:01.153Z,21.29
2018-05-31T06:44:00.889Z,21.29
2018-05-31T06:45:00.911Z,21.3
2018-05-31T06:46:01.213Z,21.29
2018-05-31T06:47:00.940Z,21.29
2018-05-31T06:48:01.192Z,21.31
2018-05-31T06:49:00.881Z,21.29
2018-05-31T06:50:01.086Z,21.3
2018-05-31T06:51:00.937Z,21.29
2018-05-31T06:52:00.875Z,21.3
2018-05-31T06:53:00.825Z,21.3
2018-05-31T06:54:00.777Z,21.3
2018-05-31T06:55:00.922Z,21.29
2018-05-31T06:56:00.946Z,21.3
2018-05-31T06:57:00.793Z,21.3
2018-05-31T06:58:00.889Z,21.29
2018-05-31T06:59:00.875Z,21.31
2018-05-31T07:00:00.941Z,21.3
2018-05-31T07:01:01.009Z,21.3
2018-05-31T07:02:01.012Z,21.3
2018-05-31T07:03:00.747Z,21.3
2018-05-31T07:04:01.025Z,21.29
2018-05-31T07:05:01.041Z,21.3
2018-05-31T07:06:00.891Z,21.31
2018-05-31T07:07:01.028Z,21.29
2018-05-31T07:08:00.752Z,21.3
2018-05-31T07:09:00.739Z,21.3
2018-05-31T07:10:01.101Z,21.3
2018-05-31T07:11:01.302Z,21.3
2018-05-31T07:12:00.770Z,21.3
2018-05-31T07:13:00.936Z,21.29
2018-05-31T07:14:00.879Z,21.3
2018-05-31T07:15:00.934Z,21.3
2018-05-31T07:16:00.962Z,21.29
2018-05-31T07:17:01.078Z,21.3
2018-05-31T07:18:01.108Z,21.29
2018-05-31T07:19:01.038Z,21.29
2018-05-31T07:20:00.773Z,21.3
2018-05-31T07:21:00.816Z,21.31
2018-05-31T07:22:00.873Z,21.3
2018-05-31T07:23:00.796Z,21.3
2018-05-31T07:24:01.358Z,21.29
2018-05-31T07:25:00.928Z,21.28
2018-05-31T07:26:00.884Z,21.3
2018-05-31T07:27:00.729Z,21.3
2018-05-31T07:28:00.815Z,21.29
2018-05-31T07:29:01.125Z,21.3
2018-05-31T07:30:01.021Z,21.3
2018-05-31T07:31:00.861Z,21.28
2018-05-31T07:32:00.961Z,21.3
2018-05-31T07:33:00.888Z,21.3
2018-05-31T07:34:00.878Z,21.29
2018-05-31T07:35:00.954Z,21.29
2018-05-31T07:36:01.450Z,21.3
2018-05-31T07:37:01.139Z,21.29
2018-05-31T07:38:00.956Z,21.3
2018-05-31T07:39:00.733Z,21.29
2018-05-31T07:40:01.036Z,21.29
2018-05-31T07:41:00.973Z,21.3
2018-05-31T07:42:01.094Z,21.31
2018-05-31T07:43:01.011Z,21.29
2018-05-31T07:44:01.059Z,21.3
2018-05-31T07:45:01.254Z,21.3
2018-05-31T07:46:00.779Z,21.28
2018-05-31T07:47:00.892Z,21.3
2018-05-31T07:48:00.850Z,21.3
2018-05-31T07:49:01.029Z,21.29
2018-05-31T07:50:00.823Z,21.3
2018-05-31T07:51:00.930Z,21.29
2018-05-31T07:52:00.938Z,21.29
2018-05-31T07:53:00.920Z,21.29
2018-05-31T07:54:00.893Z,21.3
2018-05-31T07:55:00.844Z,21.29
2018-05-31T07:56:00.850Z,21.3
2018-05-31T07:57:01.117Z,21.3
2018-05-31T07:58:01.151Z,21.29
2018-05-31T07:59:00.862Z,21.3
2018-05-31T08:00:00.865Z,21.3
2018-05-31T08:01:00.923Z,21.29
2018-05-31T08:02:01.026Z,21.3
2018-05-31T08:03:00.957Z,21.3
2018-05-31T08:04:00.962Z,21.29
2018-05-31T08:05:00.893Z,21.29
2018-05-31T08:06:00.995Z,21.31
2018-05-31T08:07:01.013Z,21.28
2018-05-31T08:08:00.720Z,21.29
2018-05-31T08:09:00.977Z,21.3
2018-05-31T08:10:01.051Z,21.29
2018-05-31T08:11:00.935Z,21.31
2018-05-31T08:12:01.065Z,21.3
2018-05-31T08:13:00.948Z,21.3
2018-05-31T08:14:00.951Z,21.3
2018-05-31T08:15:00.950Z,21.3
2018-05-31T08:16:00.949Z,21.3
2018-05-31T08:17:00.946Z,21.3
2018-05-31T08:18:00.955Z,21.31
2018-05-31T08:19:00.962Z,21.29
2018-05-31T08:20:00.964Z,21.3
2018-05-31T08:21:01.124Z,21.3
2018-05-31T08:22:01.160Z,21.3
2018-05-31T08:23:01.088Z,21.3
2018-05-31T08:24:01.028Z,21.31
2018-05-31T08:25:01.129Z,21.29
2018-05-31T08:26:01.021Z,21.3
2018-05-31T08:27:01.025Z,21.3
2018-05-31T08:28:01.152Z,21.29
2018-05-31T08:29:01.036Z,21.31
2018-05-31T08:30:01.038Z,21.3
2018-05-31T08:31:01.054Z,21.28
2018-05-31T08:32:00.863Z,21.3
2018-05-31T08:33:01.057Z,21.29
2018-05-31T08:34:01.218Z,21.3
2018-05-31T08:35:01.080Z,21.3
2018-05-31T08:36:01.078Z,21.3
2018-05-31T08:37:01.069Z,21.3
2018-05-31T08:38:01.104Z,21.3
2018-05-31T08:39:00.920Z,21.3
2018-05-31T08:40:00.933Z,21.29
2018-05-31T08:41:01.127Z,21.3
2018-05-31T08:42:01.135Z,21.3
2018-05-31T08:43:01.138Z,21.28
2018-05-31T08:44:00.955Z,21.3
2018-05-31T08:45:00.955Z,21.31
2018-05-31T08:46:01.153Z,21.29
2018-05-31T08:47:01.163Z,21.3
2018-05-31T08:48:00.902Z,21.31
2018-05-31T08:49:01.185Z,21.3
2018-05-31T08:50:00.785Z,21.3
2018-05-31T08:51:01.250Z,21.32
2018-05-31T08:52:01.203Z,21.3
2018-05-31T08:53:01.208Z,21.31
2018-05-31T08:54:01.194Z,21.3
2018-05-31T08:55:01.017Z,21.31
2018-05-31T08:56:00.975Z,21.31
2018-05-31T08:57:00.801Z,21.31
2018-05-31T08:58:01.051Z,21.3
2018-05-31T08:59:00.781Z,21.31
2018-05-31T09:00:01.257Z,21.31
2018-05-31T09:01:00.748Z,21.29
2018-05-31T09:02:01.088Z,21.31
2018-05-31T09:03:01.076Z,21.3
2018-05-31T09:04:01.064Z,21.31
2018-05-31T09:05:01.006Z,21.31
2018-05-31T09:06:00.767Z,21.32
2018-05-31T09:07:01.296Z,21.31
2018-05-31T09:08:01.011Z,21.28
2018-05-31T09:09:01.127Z,21.28
2018-05-31T09:10:01.316Z,21.3
2018-05-31T09:11:00.835Z,21.32
2018-05-31T09:12:00.810Z,21.34
2018-05-31T09:13:00.904Z,21.35
2018-05-31T09:14:01.053Z,21.38
2018-05-31T09:15:00.753Z,21.41
2018-05-31T09:16:01.118Z,21.43
2018-05-31T09:17:01.565Z,21.44
2018-05-31T09:18:00.930Z,21.46
2018-05-31T09:19:00.913Z,21.47
2018-05-31T09:20:00.897Z,21.47
2018-05-31T09:21:01.119Z,21.49
2018-05-31T09:22:01.147Z,21.48
2018-05-31T09:23:00.828Z,21.49
2018-05-31T09:24:01.154Z,21.5
2018-05-31T09:25:00.887Z,21.5
2018-05-31T09:26:00.709Z,21.51
2018-05-31T09:27:00.945Z,21.51
2018-05-31T09:28:00.850Z,21.52
2018-05-31T09:29:00.982Z,21.55
2018-05-31T09:30:00.843Z,21.54
2018-05-31T09:31:01.005Z,21.56
2018-05-31T09:32:00.818Z,21.56
2018-05-31T09:33:00.700Z,21.57
2018-05-31T09:34:00.933Z,21.57
2018-05-31T09:35:00.940Z,21.58
2018-05-31T09:36:00.737Z,21.58
2018-05-31T09:37:00.688Z,21.59
2018-05-31T09:38:01.006Z,21.6
2018-05-31T09:39:00.762Z,21.61
2018-05-31T09:40:00.733Z,21.61
2018-05-31T09:41:00.967Z,21.63
2018-05-31T09:42:00.808Z,21.64
2018-05-31T09:43:00.868Z,21.64
2018-05-31T09:44:00.811Z,21.65
2018-05-31T09:45:00.924Z,21.65
2018-05-31T09:46:00.837Z,21.65
2018-05-31T09:47:01.075Z,21.66
2018-05-31T09:48:00.824Z,21.67
2018-05-31T09:49:00.900Z,21.67
2018-05-31T09:50:01.118Z,21.68
2018-05-31T09:51:01.044Z,21.69
2018-05-31T09:52:00.922Z,21.67
2018-05-31T09:53:01.033Z,21.68
2018-05-31T09:54:00.997Z,21.69
2018-05-31T09:55:00.791Z,21.68
2018-05-31T09:56:00.974Z,21.69
2018-05-31T09:57:00.805Z,21.69
2018-05-31T09:58:00.932Z,21.7
2018-05-31T09:59:00.834Z,21.7
2018-05-31T10:00:00.843Z,21.71
2018-05-31T10:01:00.935Z,21.7
2018-05-31T10:02:01.065Z,21.71
2018-05-31T10:03:00.722Z,21.71
2018-05-31T10:04:00.833Z,21.71
2018-05-31T10:05:00.899Z,21.71
2018-05-31T10:06:00.977Z,21.73
2018-05-31T10:07:00.828Z,21.73
2018-05-31T10:08:00.794Z,21.75
2018-05-31T10:09:00.737Z,21.74
2018-05-31T10:10:00.738Z,21.72
2018-05-31T10:11:00.819Z,21.75
2018-05-31T10:12:00.927Z,21.73
2018-05-31T10:13:00.748Z,21.73
2018-05-31T10:14:00.985Z,21.73
2018-05-31T10:15:00.792Z,21.74
2018-05-31T10:16:00.872Z,21.73
2018-05-31T10:17:00.840Z,21.73
2018-05-31T10:18:00.995Z,21.7
2018-05-31T10:19:00.861Z,21.69
2018-05-31T10:20:00.797Z,21.7
2018-05-31T10:21:00.823Z,21.71
2018-05-31T10:22:00.745Z,21.7
2018-05-31T10:23:00.969Z,21.71
2018-05-31T10:24:00.803Z,21.71
2018-05-31T10:25:00.936Z,21.73
2018-05-31T10:26:00.988Z,21.74
2018-05-31T10:27:00.880Z,21.75
2018-05-31T10:28:00.915Z,21.74
2018-05-31T10:29:00.868Z,21.75
2018-05-31T10:30:00.953Z,21.76
2018-05-31T10:31:01.062Z,21.75
2018-05-31T10:32:00.936Z,21.76
2018-05-31T10:33:01.607Z,21.78
2018-05-31T10:34:00.976Z,21.78
2018-05-31T10:35:00.914Z,21.79
2018-05-31T10:36:01.065Z,21.81
2018-05-31T10:37:01.803Z,21.78
2018-05-31T10:38:01.142Z,21.79
2018-05-31T10:39:00.920Z,21.81
2018-05-31T10:40:01.100Z,21.76
2018-05-31T10:41:01.007Z,21.78
2018-05-31T10:42:01.084Z,21.78
2018-05-31T10:43:01.167Z,21.78
2018-05-31T10:44:00.954Z,21.78
2018-05-31T10:45:00.882Z,21.76
2018-05-31T10:46:01.071Z,21.76
2018-05-31T10:47:00.914Z,21.81
2018-05-31T10:48:00.948Z,21.83
2018-05-31T10:49:00.900Z,21.83
2018-05-31T10:50:01.114Z,21.86
2018-05-31T10:51:00.909Z,21.83
2018-05-31T10:52:01.007Z,21.84
2018-05-31T10:53:01.173Z,21.87
2018-05-31T10:54:00.987Z,21.87
2018-05-31T10:55:00.946Z,21.88
2018-05-31T10:56:01.064Z,21.89
2018-05-31T10:57:01.167Z,21.92
2018-05-31T10:58:01.058Z,21.89
2018-05-31T10:59:00.953Z,21.92
2018-05-31T11:00:01.209Z,21.91
2018-05-31T11:01:00.951Z,21.91
2018-05-31T11:02:01.012Z,21.91
2018-05-31T11:03:01.009Z,21.92
2018-05-31T11:04:00.978Z,21.92
2018-05-31T11:05:00.979Z,21.92
2018-05-31T11:06:00.980Z,21.93
2018-05-31T11:07:01.140Z,21.9
2018-05-31T11:08:01.024Z,21.92
2018-05-31T11:09:01.048Z,21.93
2018-05-31T11:10:01.141Z,21.92
2018-05-31T11:11:00.997Z,21.91
2018-05-31T11:12:01.074Z,21.93
2018-05-31T11:13:01.010Z,21.92
2018-05-31T11:14:00.850Z,21.91
2018-05-31T11:15:01.101Z,21.93
2018-05-31T11:16:01.028Z,21.93
2018-05-31T11:17:01.039Z,21.93
2018-05-31T11:18:01.177Z,21.94
2018-05-31T11:19:01.043Z,21.92
2018-05-31T11:20:00.857Z,21.92
2018-05-31T11:21:01.062Z,21.92
2018-05-31T11:22:01.071Z,21.91
2018-05-31T11:23:00.912Z,21.92
2018-05-31T11:24:01.075Z,21.93
2018-05-31T11:25:00.933Z,21.92
2018-05-31T11:26:01.075Z,21.93
2018-05-31T11:27:01.216Z,21.94
2018-05-31T11:28:00.877Z,21.93
2018-05-31T11:29:00.849Z,21.92
2018-05-31T11:30:01.182Z,21.93
2018-05-31T11:31:00.891Z,21.93
2018-05-31T11:32:00.884Z,21.93
2018-05-31T11:33:00.868Z,21.92
2018-05-31T11:34:00.880Z,21.93
2018-05-31T11:35:01.133Z,21.91
2018-05-31T11:36:00.925Z,21.93
2018-05-31T11:37:10.914Z,21.95
2018-05-31T11:38:00.989Z,21.94
2018-05-31T11:39:01.173Z,21.94
2018-05-31T11:40:01.181Z,21.94
2018-05-31T11:41:01.181Z,21.95
2018-05-31T11:42:01.194Z,21.96
2018-05-31T11:43:00.964Z,21.95
2018-05-31T11:44:01.201Z,21.94
2018-05-31T11:45:01.211Z,21.93
2018-05-31T11:46:00.985Z,21.93
2018-05-31T11:47:00.950Z,21.94
2018-05-31T11:48:00.789Z,21.96
2018-05-31T11:49:01.233Z,21.92
2018-05-31T11:50:01.029Z,21.93
2018-05-31T11:51:00.710Z,21.91
2018-05-31T11:52:00.683Z,21.9
2018-05-31T11:53:00.846Z,21.89
2018-05-31T11:54:00.817Z,21.9
2018-05-31T11:55:00.851Z,21.88
2018-05-31T11:56:01.045Z,21.88
2018-05-31T11:57:01.089Z,21.88
2018-05-31T11:58:00.821Z,21.87
2018-05-31T11:59:00.674Z,21.86
2018-05-31T12:00:00.723Z,21.89
2018-05-31T12:01:01.272Z,21.87
2018-05-31T12:02:00.753Z,21.87
2018-05-31T12:03:01.103Z,21.85
2018-05-31T12:04:00.724Z,21.86
2018-05-31T12:05:01.128Z,21.85
2018-05-31T12:06:00.696Z,21.85
2018-05-31T12:07:01.105Z,21.84
2018-05-31T12:08:00.885Z,21.83
2018-05-31T12:09:01.038Z,21.83
2018-05-31T12:10:00.862Z,21.82
2018-05-31T12:11:00.664Z,21.83
2018-05-31T12:12:00.899Z,21.83
2018-05-31T12:13:00.821Z,21.82
2018-05-31T12:14:00.907Z,21.81
2018-05-31T12:15:00.824Z,21.81
2018-05-31T12:16:00.658Z,21.8
2018-05-31T12:17:01.171Z,21.79
2018-05-31T12:18:00.784Z,21.78
2018-05-31T12:19:00.806Z,21.77
2018-05-31T12:20:00.734Z,21.77
2018-05-31T12:21:00.838Z,21.76
2018-05-31T12:22:01.193Z,21.75
2018-05-31T12:23:00.839Z,21.76
2018-05-31T12:24:00.735Z,21.75
2018-05-31T12:25:00.743Z,21.74
2018-05-31T12:26:01.010Z,21.74
2018-05-31T12:27:00.634Z,21.74
2018-05-31T12:28:01.004Z,21.73
2018-05-31T12:29:00.902Z,21.74
2018-05-31T12:30:00.725Z,21.73
2018-05-31T12:31:00.833Z,21.72
2018-05-31T12:32:00.829Z,21.73
2018-05-31T12:33:00.901Z,21.72
2018-05-31T12:34:00.965Z,21.72
2018-05-31T12:35:00.912Z,21.72
2018-05-31T12:36:00.706Z,21.71
2018-05-31T12:37:00.808Z,21.71
2018-05-31T12:38:00.903Z,21.72
2018-05-31T12:39:00.858Z,21.71
2018-05-31T12:40:00.851Z,21.71
2018-05-31T12:41:01.061Z,21.71
2018-05-31T12:42:00.792Z,21.7
2018-05-31T12:43:00.839Z,21.7
2018-05-31T12:44:00.922Z,21.7
2018-05-31T12:45:00.685Z,21.7
2018-05-31T12:46:00.826Z,21.69
2018-05-31T12:47:00.753Z,21.7
2018-05-31T12:48:00.829Z,21.69
2018-05-31T12:49:00.883Z,21.69
2018-05-31T12:50:00.789Z,21.69
2018-05-31T12:51:00.830Z,21.68
2018-05-31T12:52:00.745Z,21.69
2018-05-31T12:53:00.715Z,21.68
2018-05-31T12:54:00.767Z,21.69
2018-05-31T12:55:00.805Z,21.67
2018-05-31T12:56:00.971Z,21.68
2018-05-31T12:57:00.744Z,21.69